sensor_id;sensor_type;location;lat;lon;timestamp;pressure;altitude;pressure_sealevel;temperature;humidity
48614;BME280;34408;51.426;5.444;2023-09-30T00:00:34;102439.13;;;16.98;62.47
48614;BME280;34408;51.426;5.444;2023-09-30T00:03:03;102441.00;;;16.97;62.62
48614;BME280;34408;51.426;5.444;2023-09-30T00:05:31;102442.28;;;16.95;62.58
48614;BME280;34408;51.426;5.444;2023-09-30T00:08:00;102436.03;;;16.94;62.56
48614;BME280;34408;51.426;5.444;2023-09-30T00:10:29;102429.16;;;16.91;62.67
48614;BME280;34408;51.426;5.444;2023-09-30T00:12:57;102447.09;;;16.92;62.87
48614;BME280;34408;51.426;5.444;2023-09-30T00:15:26;102448.38;;;16.90;62.63
48614;BME280;34408;51.426;5.444;2023-09-30T00:17:54;102448.63;;;16.88;62.90
48614;BME280;34408;51.426;5.444;2023-09-30T00:20:22;102450.50;;;16.88;62.80
48614;BME280;34408;51.426;5.444;2023-09-30T00:22:50;102451.31;;;16.88;62.80
48614;BME280;34408;51.426;5.444;2023-09-30T00:25:18;102450.50;;;16.88;62.90
48614;BME280;34408;51.426;5.444;2023-09-30T00:27:48;102451.31;;;16.88;62.84
48614;BME280;34408;51.426;5.444;2023-09-30T00:30:16;102446.94;;;16.87;62.86
48614;BME280;34408;51.426;5.444;2023-09-30T00:32:44;102445.06;;;16.88;62.84
48614;BME280;34408;51.426;5.444;2023-09-30T00:35:13;102432.53;;;16.87;62.86
48614;BME280;34408;51.426;5.444;2023-09-30T00:37:43;102432.53;;;16.87;62.92
48614;BME280;34408;51.426;5.444;2023-09-30T00:40:11;102435.09;;;16.82;62.85
48614;BME280;34408;51.426;5.444;2023-09-30T00:42:40;102466.19;;;16.86;62.81
48614;BME280;34408;51.426;5.444;2023-09-30T00:45:11;102468.06;;;16.85;63.00
48614;BME280;34408;51.426;5.444;2023-09-30T00:47:40;102466.41;;;16.84;62.93
48614;BME280;34408;51.426;5.444;2023-09-30T00:50:09;102460.16;;;16.84;62.96
48614;BME280;34408;51.426;5.444;2023-09-30T00:52:39;102456.81;;;16.82;63.01
48614;BME280;34408;51.426;5.444;2023-09-30T00:55:08;102437.81;;;16.82;62.93
48614;BME280;34408;51.426;5.444;2023-09-30T00:57:37;102444.09;;;16.82;63.14
48614;BME280;34408;51.426;5.444;2023-09-30T01:00:07;102454.94;;;16.82;63.08
48614;BME280;34408;51.426;5.444;2023-09-30T01:02:40;102468.75;;;16.81;63.12
48614;BME280;34408;51.426;5.444;2023-09-30T01:05:08;102467.09;;;16.80;63.03
48614;BME280;34408;51.426;5.444;2023-09-30T01:07:36;102465.41;;;16.79;63.01
48614;BME280;34408;51.426;5.444;2023-09-30T01:10:05;102469.41;;;16.76;63.32
48614;BME280;34408;51.426;5.444;2023-09-30T01:12:34;102476.50;;;16.77;63.09
48614;BME280;34408;51.426;5.444;2023-09-30T01:15:02;102466.91;;;16.75;63.12
48614;BME280;34408;51.426;5.444;2023-09-30T01:17:34;102469.63;;;16.75;63.06
48614;BME280;34408;51.426;5.444;2023-09-30T01:20:05;102469.84;;;16.73;62.89
48614;BME280;34408;51.426;5.444;2023-09-30T01:22:36;102475.50;;;16.72;63.16
48614;BME280;34408;51.426;5.444;2023-09-30T01:25:05;102476.66;;;16.57;63.15
48614;BME280;34408;51.426;5.444;2023-09-30T01:27:33;102498.50;;;16.69;63.09
48614;BME280;34408;51.426;5.444;2023-09-30T01:30:01;102501.44;;;16.68;63.26
48614;BME280;34408;51.426;5.444;2023-09-30T01:32:29;102504.16;;;16.68;63.24
48614;BME280;34408;51.426;5.444;2023-09-30T01:34:57;102492.50;;;16.60;63.14
48614;BME280;34408;51.426;5.444;2023-09-30T01:37:26;102492.06;;;16.64;63.22
48614;BME280;34408;51.426;5.444;2023-09-30T01:39:56;102489.16;;;16.58;63.28
48614;BME280;34408;51.426;5.444;2023-09-30T01:42:24;102490.59;;;16.61;63.27
48614;BME280;34408;51.426;5.444;2023-09-30T01:44:52;102490.44;;;16.56;63.10
48614;BME280;34408;51.426;5.444;2023-09-30T01:47:21;102491.06;;;16.58;63.14
48614;BME280;34408;51.426;5.444;2023-09-30T01:49:48;102479.81;;;16.54;63.11
48614;BME280;34408;51.426;5.444;2023-09-30T01:52:16;102485.84;;;16.56;63.21
48614;BME280;34408;51.426;5.444;2023-09-30T01:54:44;102481.47;;;16.55;63.25
48614;BME280;34408;51.426;5.444;2023-09-30T01:57:13;102481.69;;;16.54;63.23
48614;BME280;34408;51.426;5.444;2023-09-30T01:59:41;102482.75;;;16.53;63.21
48614;BME280;34408;51.426;5.444;2023-09-30T02:02:09;102490.06;;;16.52;63.31
48614;BME280;34408;51.426;5.444;2023-09-30T02:04:36;102495.69;;;16.51;63.46
48614;BME280;34408;51.426;5.444;2023-09-30T02:07:04;102487.78;;;16.49;63.19
48614;BME280;34408;51.426;5.444;2023-09-30T02:09:32;102482.13;;;16.51;63.02
48614;BME280;34408;51.426;5.444;2023-09-30T02:12:00;102492.38;;;16.49;63.08
48614;BME280;34408;51.426;5.444;2023-09-30T02:14:29;102489.66;;;16.49;63.11
48614;BME280;34408;51.426;5.444;2023-09-30T02:16:57;102489.88;;;16.47;63.06
48614;BME280;34408;51.426;5.444;2023-09-30T02:19:25;102482.78;;;16.46;63.18
48614;BME280;34408;51.426;5.444;2023-09-30T02:21:54;102489.06;;;16.47;63.06
48614;BME280;34408;51.426;5.444;2023-09-30T02:24:21;102501.78;;;16.46;62.96
48614;BME280;34408;51.426;5.444;2023-09-30T02:26:49;102502.69;;;16.40;63.03
48614;BME280;34408;51.426;5.444;2023-09-30T02:29:17;102509.94;;;16.46;63.07
48614;BME280;34408;51.426;5.444;2023-09-30T02:31:47;102479.97;;;16.35;62.95
48614;BME280;34408;51.426;5.444;2023-09-30T02:34:15;102482.19;;;16.44;63.07
48614;BME280;34408;51.426;5.444;2023-09-30T02:36:44;102480.53;;;16.43;63.06
48614;BME280;34408;51.426;5.444;2023-09-30T02:39:12;102485.13;;;16.43;62.92
48614;BME280;34408;51.426;5.444;2023-09-30T02:41:43;102491.59;;;16.42;63.01
48614;BME280;34408;51.426;5.444;2023-09-30T02:44:11;102495.97;;;16.43;63.06
48614;BME280;34408;51.426;5.444;2023-09-30T02:46:39;102488.06;;;16.41;62.97
48614;BME280;34408;51.426;5.444;2023-09-30T02:49:08;102484.72;;;16.39;63.09
48614;BME280;34408;51.426;5.444;2023-09-30T02:51:36;102483.06;;;16.38;63.00
48614;BME280;34408;51.426;5.444;2023-09-30T02:54:04;102479.75;;;16.36;63.11
48614;BME280;34408;51.426;5.444;2023-09-30T02:56:32;102481.41;;;16.37;63.06
48614;BME280;34408;51.426;5.444;2023-09-30T02:59:00;102477.84;;;16.37;63.01
48614;BME280;34408;51.426;5.444;2023-09-30T03:01:28;102480.78;;;16.35;63.13
48614;BME280;34408;51.426;5.444;2023-09-30T03:03:57;102487.88;;;16.36;63.04
48614;BME280;34408;51.426;5.444;2023-09-30T03:06:27;102487.06;;;16.36;63.11
48614;BME280;34408;51.426;5.444;2023-09-30T03:08:55;102491.66;;;16.35;63.09
48614;BME280;34408;51.426;5.444;2023-09-30T03:11:23;102498.34;;;16.33;63.09
48614;BME280;34408;51.426;5.444;2023-09-30T03:13:50;102495.63;;;16.33;63.09
48614;BME280;34408;51.426;5.444;2023-09-30T03:16:18;102490.66;;;16.30;63.15
48614;BME280;34408;51.426;5.444;2023-09-30T03:18:47;102476.25;;;16.29;63.10
48614;BME280;34408;51.426;5.444;2023-09-30T03:21:16;102481.50;;;16.24;63.10
48614;BME280;34408;51.426;5.444;2023-09-30T03:23:45;102497.34;;;16.27;63.17
48614;BME280;34408;51.426;5.444;2023-09-30T03:26:13;102487.75;;;16.24;63.08
48614;BME280;34408;51.426;5.444;2023-09-30T03:28:42;102481.94;;;16.21;63.26
48614;BME280;34408;51.426;5.444;2023-09-30T03:31:09;102475.47;;;16.22;63.07
48614;BME280;34408;51.426;5.444;2023-09-30T03:33:37;102468.38;;;16.21;63.15
48614;BME280;34408;51.426;5.444;2023-09-30T03:36:08;102462.34;;;16.19;63.13
48614;BME280;34408;51.426;5.444;2023-09-30T03:38:37;102466.94;;;16.18;63.24
48614;BME280;34408;51.426;5.444;2023-09-30T03:41:07;102459.00;;;16.17;63.20
48614;BME280;34408;51.426;5.444;2023-09-30T03:43:35;102460.28;;;16.14;63.23
48614;BME280;34408;51.426;5.444;2023-09-30T03:46:07;102474.25;;;16.18;63.25
48614;BME280;34408;51.426;5.444;2023-09-30T03:48:35;102476.34;;;16.16;63.22
48614;BME280;34408;51.426;5.444;2023-09-30T03:51:09;102473.44;;;16.11;63.37
48614;BME280;34408;51.426;5.444;2023-09-30T03:53:40;102481.16;;;16.14;63.25
48614;BME280;34408;51.426;5.444;2023-09-30T03:56:09;102482.22;;;16.13;63.30
48614;BME280;34408;51.426;5.444;2023-09-30T03:58:38;102470.13;;;16.09;63.29
48614;BME280;34408;51.426;5.444;2023-09-30T04:01:06;102468.25;;;16.09;63.24
48614;BME280;34408;51.426;5.444;2023-09-30T04:03:37;102461.00;;;16.03;63.33
48614;BME280;34408;51.426;5.444;2023-09-30T04:06:06;102472.22;;;16.07;63.11
48614;BME280;34408;51.426;5.444;2023-09-30T04:08:34;102468.91;;;16.05;63.20
48614;BME280;34408;51.426;5.444;2023-09-30T04:11:02;102474.31;;;16.05;63.35
48614;BME280;34408;51.426;5.444;2023-09-30T04:13:32;102477.88;;;16.05;63.22
48614;BME280;34408;51.426;5.444;2023-09-30T04:16:00;102469.13;;;16.03;63.30
48614;BME280;34408;51.426;5.444;2023-09-30T04:18:27;102464.53;;;16.04;63.23
48614;BME280;34408;51.426;5.444;2023-09-30T04:20:56;102462.47;;;15.99;63.13
48614;BME280;34408;51.426;5.444;2023-09-30T04:23:25;102471.84;;;16.03;63.13
48614;BME280;34408;51.426;5.444;2023-09-30T04:25:52;102469.94;;;16.04;63.17
48614;BME280;34408;51.426;5.444;2023-09-30T04:28:21;102466.19;;;16.05;63.03
48614;BME280;34408;51.426;5.444;2023-09-30T04:30:50;102467.69;;;16.01;63.04
48614;BME280;34408;51.426;5.444;2023-09-30T04:33:18;102469.56;;;16.00;63.06
48614;BME280;34408;51.426;5.444;2023-09-30T04:35:46;102469.13;;;16.03;63.06
48614;BME280;34408;51.426;5.444;2023-09-30T04:38:14;102462.88;;;16.03;63.15
48614;BME280;34408;51.426;5.444;2023-09-30T04:40:42;102472.06;;;16.02;63.03
48614;BME280;34408;51.426;5.444;2023-09-30T04:43:11;102475.41;;;15.97;63.00
48614;BME280;34408;51.426;5.444;2023-09-30T04:45:40;102481.25;;;16.01;63.03
48614;BME280;34408;51.426;5.444;2023-09-30T04:48:10;102483.94;;;16.01;62.99
48614;BME280;34408;51.426;5.444;2023-09-30T04:50:39;102484.16;;;15.99;62.92
48614;BME280;34408;51.426;5.444;2023-09-30T04:53:06;102477.09;;;15.98;62.89
48614;BME280;34408;51.426;5.444;2023-09-30T04:55:35;102474.59;;;15.97;63.00
48614;BME280;34408;51.426;5.444;2023-09-30T04:58:04;102476.47;;;15.96;62.98
48614;BME280;34408;51.426;5.444;2023-09-30T05:00:33;102485.88;;;15.93;62.90
48614;BME280;34408;51.426;5.444;2023-09-30T05:03:01;102501.09;;;15.94;63.02
48614;BME280;34408;51.426;5.444;2023-09-30T05:05:32;102504.03;;;15.93;62.97
48614;BME280;34408;51.426;5.444;2023-09-30T05:08:00;102496.31;;;15.90;62.88
48614;BME280;34408;51.426;5.444;2023-09-30T05:10:29;102496.94;;;15.92;62.96
48614;BME280;34408;51.426;5.444;2023-09-30T05:12:56;102492.78;;;15.89;62.95
48614;BME280;34408;51.426;5.444;2023-09-30T05:15:24;102501.53;;;15.91;62.89
48614;BME280;34408;51.426;5.444;2023-09-30T05:17:52;102499.84;;;15.90;62.91
48614;BME280;34408;51.426;5.444;2023-09-30T05:20:20;102497.81;;;15.86;62.91
48614;BME280;34408;51.426;5.444;2023-09-30T05:22:50;102501.56;;;15.85;62.88
48614;BME280;34408;51.426;5.444;2023-09-30T05:25:18;102499.06;;;15.83;62.98
48614;BME280;34408;51.426;5.444;2023-09-30T05:27:46;102505.53;;;15.82;62.85
48614;BME280;34408;51.426;5.444;2023-09-30T05:30:15;102501.59;;;15.78;62.82
48614;BME280;34408;51.426;5.444;2023-09-30T05:32:46;102514.53;;;15.76;62.92
48614;BME280;34408;51.426;5.444;2023-09-30T05:35:14;102508.91;;;15.78;62.93
48614;BME280;34408;51.426;5.444;2023-09-30T05:37:44;102512.69;;;15.70;63.08
48614;BME280;34408;51.426;5.444;2023-09-30T05:40:14;102522.66;;;15.76;62.94
48614;BME280;34408;51.426;5.444;2023-09-30T05:42:50;102512.88;;;15.75;62.95
48614;BME280;34408;51.426;5.444;2023-09-30T05:45:18;102517.47;;;15.75;62.94
48614;BME280;34408;51.426;5.444;2023-09-30T05:47:46;102522.25;;;15.73;63.04
48614;BME280;34408;51.426;5.444;2023-09-30T05:50:18;102519.75;;;15.71;63.16
48614;BME280;34408;51.426;5.444;2023-09-30T05:52:50;102519.75;;;15.71;62.97
48614;BME280;34408;51.426;5.444;2023-09-30T05:55:19;102524.13;;;15.72;62.96
48614;BME280;34408;51.426;5.444;2023-09-30T05:57:48;102522.69;;;15.70;63.02
48614;BME280;34408;51.426;5.444;2023-09-30T06:00:17;102533.31;;;15.71;62.98
48614;BME280;34408;51.426;5.444;2023-09-30T06:02:49;102533.53;;;15.70;63.04
48614;BME280;34408;51.426;5.444;2023-09-30T06:05:18;102535.41;;;15.69;63.05
48614;BME280;34408;51.426;5.444;2023-09-30T06:07:48;102538.97;;;15.70;63.11
48614;BME280;34408;51.426;5.444;2023-09-30T06:10:16;102511.91;;;15.56;62.98
48614;BME280;34408;51.426;5.444;2023-09-30T06:12:47;102533.75;;;15.68;62.87
48614;BME280;34408;51.426;5.444;2023-09-30T06:15:16;102530.41;;;15.66;63.03
48614;BME280;34408;51.426;5.444;2023-09-30T06:17:49;102533.34;;;15.65;63.25
48614;BME280;34408;51.426;5.444;2023-09-30T06:20:19;102535.22;;;15.64;63.19
48614;BME280;34408;51.426;5.444;2023-09-30T06:22:49;102531.69;;;15.63;63.02
48614;BME280;34408;51.426;5.444;2023-09-30T06:25:17;102528.34;;;15.61;63.08
48614;BME280;34408;51.426;5.444;2023-09-30T06:27:48;102523.34;;;15.65;63.07
48614;BME280;34408;51.426;5.444;2023-09-30T06:30:17;102505.47;;;15.57;63.09
48614;BME280;34408;51.426;5.444;2023-09-30T06:32:46;102529.81;;;15.64;63.22
48614;BME280;34408;51.426;5.444;2023-09-30T06:35:14;102530.84;;;15.63;63.12
48614;BME280;34408;51.426;5.444;2023-09-30T06:37:42;102528.97;;;15.63;63.23
48614;BME280;34408;51.426;5.444;2023-09-30T06:40:12;102528.97;;;15.63;63.21
48614;BME280;34408;51.426;5.444;2023-09-30T06:42:40;102532.09;;;15.60;64.10
48614;BME280;34408;51.426;5.444;2023-09-30T06:45:11;102523.97;;;15.60;63.88
48614;BME280;34408;51.426;5.444;2023-09-30T06:47:40;102522.75;;;15.56;63.82
48614;BME280;34408;51.426;5.444;2023-09-30T06:50:09;102542.16;;;15.60;63.98
48614;BME280;34408;51.426;5.444;2023-09-30T06:52:40;102544.44;;;15.56;63.97
48614;BME280;34408;51.426;5.444;2023-09-30T06:55:09;102541.72;;;15.56;63.80
48614;BME280;34408;51.426;5.444;2023-09-30T06:57:40;102545.28;;;15.57;64.06
48614;BME280;34408;51.426;5.444;2023-09-30T07:00:11;102551.72;;;15.56;63.87
48614;BME280;34408;51.426;5.444;2023-09-30T07:02:41;102551.75;;;15.49;63.91
48614;BME280;34408;51.426;5.444;2023-09-30T07:05:10;102567.97;;;15.56;64.22
48614;BME280;34408;51.426;5.444;2023-09-30T07:07:39;102577.81;;;15.57;64.16
48614;BME280;34408;51.426;5.444;2023-09-30T07:10:08;102578.19;;;15.54;64.08
48614;BME280;34408;51.426;5.444;2023-09-30T07:12:36;102584.06;;;15.57;64.16
48614;BME280;34408;51.426;5.444;2023-09-30T07:15:06;102583.22;;;15.57;64.42
48614;BME280;34408;51.426;5.444;2023-09-30T07:17:36;102587.38;;;15.59;64.29
48614;BME280;34408;51.426;5.444;2023-09-30T07:20:05;102578.19;;;15.60;64.18
48614;BME280;34408;51.426;5.444;2023-09-30T07:22:37;102582.34;;;15.63;64.09
48614;BME280;34408;51.426;5.444;2023-09-30T07:25:08;102583.59;;;15.60;66.03
48614;BME280;34408;51.426;5.444;2023-09-30T07:27:36;102595.91;;;15.63;66.01
48614;BME280;34408;51.426;5.444;2023-09-30T07:30:05;102605.06;;;15.62;65.51
48614;BME280;34408;51.426;5.444;2023-09-30T07:32:33;102623.22;;;15.61;65.48
48614;BME280;34408;51.426;5.444;2023-09-30T07:35:03;102624.88;;;15.62;65.36
48614;BME280;34408;51.426;5.444;2023-09-30T07:37:31;102634.69;;;15.63;65.34
48614;BME280;34408;51.426;5.444;2023-09-30T07:39:59;102627.59;;;15.62;65.13
48614;BME280;34408;51.426;5.444;2023-09-30T07:42:27;102632.19;;;15.62;65.50
48614;BME280;34408;51.426;5.444;2023-09-30T07:44:54;102625.34;;;15.59;65.49
48614;BME280;34408;51.426;5.444;2023-09-30T07:47:22;102634.47;;;15.65;66.05
48614;BME280;34408;51.426;5.444;2023-09-30T07:49:50;102627.38;;;15.64;66.20
48614;BME280;34408;51.426;5.444;2023-09-30T07:52:19;102626.53;;;15.63;65.85
48614;BME280;34408;51.426;5.444;2023-09-30T07:54:47;102619.03;;;15.66;66.12
48614;BME280;34408;51.426;5.444;2023-09-30T07:57:15;102616.13;;;15.67;65.79
48614;BME280;34408;51.426;5.444;2023-09-30T07:59:43;102615.69;;;15.70;65.76
48614;BME280;34408;51.426;5.444;2023-09-30T08:02:10;102616.72;;;15.69;65.70
48614;BME280;34408;51.426;5.444;2023-09-30T08:04:38;102601.97;;;15.58;65.59
48614;BME280;34408;51.426;5.444;2023-09-30T08:07:06;102622.78;;;15.71;65.67
48614;BME280;34408;51.426;5.444;2023-09-30T08:09:37;102621.94;;;15.71;65.79
48614;BME280;34408;51.426;5.444;2023-09-30T08:12:05;102619.22;;;15.71;67.11
48614;BME280;34408;51.426;5.444;2023-09-30T08:14:33;102619.44;;;15.69;66.32
48614;BME280;34408;51.426;5.444;2023-09-30T08:17:01;102615.91;;;15.69;66.73
48614;BME280;34408;51.426;5.444;2023-09-30T08:19:30;102621.31;;;15.69;66.27
48614;BME280;34408;51.426;5.444;2023-09-30T08:21:57;102612.97;;;15.70;66.98
48614;BME280;34408;51.426;5.444;2023-09-30T08:24:25;102605.28;;;15.67;67.17
48614;BME280;34408;51.426;5.444;2023-09-30T08:26:54;102607.34;;;15.72;66.71
48614;BME280;34408;51.426;5.444;2023-09-30T08:29:23;102597.34;;;15.66;66.42
48614;BME280;34408;51.426;5.444;2023-09-30T08:31:50;102604.41;;;15.73;68.19
48614;BME280;34408;51.426;5.444;2023-09-30T08:34:18;102605.25;;;15.74;68.51
48614;BME280;34408;51.426;5.444;2023-09-30T08:36:47;102593.56;;;15.73;67.98
48614;BME280;34408;51.426;5.444;2023-09-30T08:39:15;102599.63;;;15.75;67.60
48614;BME280;34408;51.426;5.444;2023-09-30T08:41:43;102598.56;;;15.76;67.30
48614;BME280;34408;51.426;5.444;2023-09-30T08:44:13;102599.41;;;15.77;67.21
48614;BME280;34408;51.426;5.444;2023-09-30T08:46:41;102595.81;;;15.89;67.21
48614;BME280;34408;51.426;5.444;2023-09-30T08:49:11;102591.22;;;15.90;66.93
48614;BME280;34408;51.426;5.444;2023-09-30T08:51:40;102584.13;;;15.89;67.05
48614;BME280;34408;51.426;5.444;2023-09-30T08:54:08;102585.56;;;15.98;67.12
48614;BME280;34408;51.426;5.444;2023-09-30T08:56:36;102595.78;;;15.96;67.13
48614;BME280;34408;51.426;5.444;2023-09-30T08:59:11;102582.22;;;15.96;67.16
48614;BME280;34408;51.426;5.444;2023-09-30T09:01:41;102584.94;;;15.96;67.55
48614;BME280;34408;51.426;5.444;2023-09-30T09:04:08;102584.72;;;15.98;67.51
48614;BME280;34408;51.426;5.444;2023-09-30T09:06:37;102585.03;;;16.21;67.40
48614;BME280;34408;51.426;5.444;2023-09-30T09:09:14;102586.53;;;16.10;67.11
48614;BME280;34408;51.426;5.444;2023-09-30T09:11:43;102594.88;;;16.15;67.66
48614;BME280;34408;51.426;5.444;2023-09-30T09:14:11;102606.75;;;16.14;67.36
48614;BME280;34408;51.426;5.444;2023-09-30T09:16:52;102615.94;;;16.13;67.35
48614;BME280;34408;51.426;5.444;2023-09-30T09:19:21;102616.97;;;16.19;67.64
48614;BME280;34408;51.426;5.444;2023-09-30T09:21:56;102623.66;;;16.16;67.85
48614;BME280;34408;51.426;5.444;2023-09-30T09:24:29;102614.91;;;16.14;67.76
48614;BME280;34408;51.426;5.444;2023-09-30T09:27:07;102612.19;;;16.14;67.94
48614;BME280;34408;51.426;5.444;2023-09-30T09:29:35;102633.47;;;16.17;67.80
48614;BME280;34408;51.426;5.444;2023-09-30T09:32:08;102643.25;;;16.18;67.92
48614;BME280;34408;51.426;5.444;2023-09-30T09:34:37;102639.28;;;16.21;67.81
48614;BME280;34408;51.426;5.444;2023-09-30T09:37:16;102644.53;;;16.16;67.86
48614;BME280;34408;51.426;5.444;2023-09-30T09:39:54;102650.53;;;16.24;68.02
48614;BME280;34408;51.426;5.444;2023-09-30T09:42:25;102651.16;;;16.26;67.87
48614;BME280;34408;51.426;5.444;2023-09-30T09:44:55;102655.75;;;16.26;67.91
48614;BME280;34408;51.426;5.444;2023-09-30T09:47:24;102656.59;;;16.26;67.98
48614;BME280;34408;51.426;5.444;2023-09-30T09:49:53;102646.53;;;16.34;69.28
48614;BME280;34408;51.426;5.444;2023-09-30T09:52:21;102646.94;;;16.37;69.08
48614;BME280;34408;51.426;5.444;2023-09-30T09:54:51;102643.16;;;16.38;68.82
48614;BME280;34408;51.426;5.444;2023-09-30T09:57:19;102639.19;;;16.41;68.84
48614;BME280;34408;51.426;5.444;2023-09-30T09:59:47;102645.03;;;16.44;68.64
48614;BME280;34408;51.426;5.444;2023-09-30T10:02:16;102656.72;;;16.45;68.63
48614;BME280;34408;51.426;5.444;2023-09-30T10:04:46;102645.63;;;16.46;68.70
48614;BME280;34408;51.426;5.444;2023-09-30T10:07:20;102645.38;;;16.54;68.52
48614;BME280;34408;51.426;5.444;2023-09-30T10:09:51;102646.00;;;16.56;69.05
48614;BME280;34408;51.426;5.444;2023-09-30T10:12:20;102658.28;;;16.66;68.76
48614;BME280;34408;51.426;5.444;2023-09-30T10:14:51;102663.28;;;16.62;68.56
48614;BME280;34408;51.426;5.444;2023-09-30T10:17:19;102652.66;;;16.67;69.68
48614;BME280;34408;51.426;5.444;2023-09-30T10:20:07;102654.75;;;16.65;69.24
48614;BME280;34408;51.426;5.444;2023-09-30T10:22:36;102662.69;;;16.67;68.82
48614;BME280;34408;51.426;5.444;2023-09-30T10:25:33;102667.06;;;16.68;68.70
48614;BME280;34408;51.426;5.444;2023-09-30T10:28:36;102653.03;;;16.71;68.46
48614;BME280;34408;51.426;5.444;2023-09-30T10:31:12;102638.41;;;16.72;68.17
48614;BME280;34408;51.426;5.444;2023-09-30T10:34:20;102639.66;;;16.76;68.08
48614;BME280;34408;51.426;5.444;2023-09-30T10:36:49;102642.34;;;16.76;68.07
48614;BME280;34408;51.426;5.444;2023-09-30T10:39:55;102636.00;;;16.88;68.41
48614;BME280;34408;51.426;5.444;2023-09-30T10:42:43;102636.13;;;17.00;68.10
48614;BME280;34408;51.426;5.444;2023-09-30T10:45:42;102628.84;;;16.94;67.61
48614;BME280;34408;51.426;5.444;2023-09-30T10:48:36;102624.25;;;16.95;67.79
48614;BME280;34408;51.426;5.444;2023-09-30T10:51:12;102621.09;;;16.98;68.28
48614;BME280;34408;51.426;5.444;2023-09-30T10:53:47;102610.00;;;16.99;67.95
48614;BME280;34408;51.426;5.444;2023-09-30T10:56:15;102611.47;;;17.02;68.00
48614;BME280;34408;51.426;5.444;2023-09-30T10:58:45;102610.19;;;17.04;67.78
48614;BME280;34408;51.426;5.444;2023-09-30T11:01:14;102596.22;;;17.01;67.57
48614;BME280;34408;51.426;5.444;2023-09-30T11:03:44;102598.69;;;17.02;67.11
48614;BME280;34408;51.426;5.444;2023-09-30T11:06:13;102596.38;;;17.06;66.70
48614;BME280;34408;51.426;5.444;2023-09-30T11:08:50;102590.72;;;17.07;66.73
48614;BME280;34408;51.426;5.444;2023-09-30T11:11:19;102591.56;;;17.08;66.70
48614;BME280;34408;51.426;5.444;2023-09-30T11:13:47;102593.66;;;17.06;66.51
48614;BME280;34408;51.426;5.444;2023-09-30T11:16:15;102591.09;;;17.11;66.28
48614;BME280;34408;51.426;5.444;2023-09-30T11:18:42;102592.78;;;17.12;66.54
48614;BME280;34408;51.426;5.444;2023-09-30T11:21:11;102592.78;;;17.12;66.13
48614;BME280;34408;51.426;5.444;2023-09-30T11:23:41;102599.66;;;17.14;65.86
48614;BME280;34408;51.426;5.444;2023-09-30T11:26:10;102591.28;;;17.16;65.79
48614;BME280;34408;51.426;5.444;2023-09-30T11:28:41;102585.16;;;17.20;66.39
48614;BME280;34408;51.426;5.444;2023-09-30T11:31:11;102592.03;;;17.23;66.23
48614;BME280;34408;51.426;5.444;2023-09-30T11:33:50;102601.03;;;17.23;66.06
48614;BME280;34408;51.426;5.444;2023-09-30T11:36:20;102594.31;;;17.26;65.81
48614;BME280;34408;51.426;5.444;2023-09-30T11:38:51;102593.63;;;17.31;65.48
48614;BME280;34408;51.426;5.444;2023-09-30T11:41:21;102593.16;;;17.34;65.54
48614;BME280;34408;51.426;5.444;2023-09-30T11:44:03;102575.22;;;17.33;65.63
48614;BME280;34408;51.426;5.444;2023-09-30T11:46:53;102576.84;;;17.34;65.77
48614;BME280;34408;51.426;5.444;2023-09-30T11:49:27;102573.06;;;17.35;65.50
48614;BME280;34408;51.426;5.444;2023-09-30T11:51:56;102580.41;;;17.34;65.47
48614;BME280;34408;51.426;5.444;2023-09-30T11:54:30;102587.88;;;17.39;65.36
48614;BME280;34408;51.426;5.444;2023-09-30T11:57:00;102579.50;;;17.40;65.22
48614;BME280;34408;51.426;5.444;2023-09-30T11:59:29;102579.66;;;17.45;65.54
48614;BME280;34408;51.426;5.444;2023-09-30T12:01:57;102580.25;;;17.47;65.00
48614;BME280;34408;51.426;5.444;2023-09-30T12:04:41;102573.78;;;17.48;64.71
48614;BME280;34408;51.426;5.444;2023-09-30T12:07:10;102566.81;;;17.52;64.83
48614;BME280;34408;51.426;5.444;2023-09-30T12:09:38;102569.53;;;17.52;64.87
48614;BME280;34408;51.426;5.444;2023-09-30T12:12:08;102569.31;;;17.54;64.76
48614;BME280;34408;51.426;5.444;2023-09-30T12:14:37;102568.03;;;17.56;64.59
48614;BME280;34408;51.426;5.444;2023-09-30T12:17:06;102580.72;;;17.63;64.35
48614;BME280;34408;51.426;5.444;2023-09-30T12:19:38;102569.63;;;17.64;65.00
48614;BME280;34408;51.426;5.444;2023-09-30T12:22:08;102566.47;;;17.67;64.77
48614;BME280;34408;51.426;5.444;2023-09-30T12:24:36;102564.00;;;17.66;65.13
48614;BME280;34408;51.426;5.444;2023-09-30T12:27:04;102565.19;;;17.70;64.74
48614;BME280;34408;51.426;5.444;2023-09-30T12:29:34;102562.03;;;17.73;65.05
48614;BME280;34408;51.426;5.444;2023-09-30T12:32:04;102538.88;;;17.64;65.29
48614;BME280;34408;51.426;5.444;2023-09-30T12:34:32;102550.22;;;17.79;65.26
48614;BME280;34408;51.426;5.444;2023-09-30T12:37:00;102552.03;;;17.85;65.65
48614;BME280;34408;51.426;5.444;2023-09-30T12:39:28;102540.31;;;17.84;65.28
48614;BME280;34408;51.426;5.444;2023-09-30T12:42:00;102545.75;;;17.84;65.09
48614;BME280;34408;51.426;5.444;2023-09-30T12:44:28;102540.69;;;17.88;65.38
48614;BME280;34408;51.426;5.444;2023-09-30T12:46:57;102535.84;;;17.90;65.08
48614;BME280;34408;51.426;5.444;2023-09-30T12:49:25;102525.22;;;17.88;65.77
48614;BME280;34408;51.426;5.444;2023-09-30T12:51:53;102501.19;;;17.85;64.61
48614;BME280;34408;51.426;5.444;2023-09-30T12:54:20;102522.53;;;18.00;64.65
48614;BME280;34408;51.426;5.444;2023-09-30T12:56:48;102535.03;;;18.19;63.91
48614;BME280;34408;51.426;5.444;2023-09-30T12:59:17;102537.28;;;18.23;64.26
48614;BME280;34408;51.426;5.444;2023-09-30T13:01:46;102533.28;;;18.25;63.95
48614;BME280;34408;51.426;5.444;2023-09-30T13:04:16;102532.09;;;18.21;63.99